Terminal Aerodrome Forecast
Issued by NWS

Home | Current Version | Previous Version | Text Only | Print | Product List | Glossary On
Versions: 1 2 3 4 5 6 7 8 9 10 11 12 13
000
FTUS43 KDTX 262330
TAFYIP
TAF
KYIP 262330Z 2700/2724 15007KT P6SM SCT080 BKN250
     FM271400 18018G28KT P6SM -SHRA BKN040 BKN100 PROB30 2717/2719
      3SM TSRA OVC025CB
     FM271900 24018G28KT P6SM BKN040=

USA.gov is the U.S. government's official web portal to all federal, state and local government web resources and services.